Time;durP1;ratioP1;P1;durP2;ratioP2;P2;SDS_P1;SDS_P2;PMS_P1;PMS_P2;Temp;Humidity;BMP_temperature;BMP_pressure;BME280_temperature;BME280_humidity;BME280_pressure;Samples;Min_cycle;Max_cycle;Signal;HPM_P1;HPM_P2
2022/05/21 00:00:29;;;;;;;28.60;6.60;;;;;;;15.42;51.99;99049.70;25089;1313;3026249;-70
2022/05/21 00:02:58;;;;;;;28.40;6.10;;;;;;;15.42;51.78;99043.87;25112;1315;3052066;-69
2022/05/21 00:05:29;;;;;;;20.80;5.40;;;;;;;15.43;51.53;99042.04;25109;1312;3026468;-70
2022/05/21 00:07:58;;;;;;;18.20;5.40;;;;;;;15.39;52.03;99037.64;25095;1315;3052293;-64
2022/05/21 00:10:30;;;;;;;22.40;6.00;;;;;;;15.29;52.04;99036.75;25123;1315;3026423;-61
2022/05/21 00:13:00;;;;;;;24.10;6.20;;;;;;;15.29;51.83;99034.27;25136;1313;3030256;-64
2022/05/21 00:15:30;;;;;;;28.60;6.10;;;;;;;15.25;52.11;99032.27;25072;1314;3026539;-63
2022/05/21 00:17:59;;;;;;;22.20;7.00;;;;;;;15.26;51.66;99030.81;25106;1314;3026568;-62
2022/05/21 00:23:20;;;;;;;16.10;5.50;;;;;;;15.22;51.68;99027.41;25048;1315;3052118;-61
2022/05/21 00:25:54;;;;;;;22.20;6.20;;;;;;;15.19;51.47;99023.84;25104;1315;3053461;-70
2022/05/21 00:28:23;;;;;;;32.90;5.90;;;;;;;15.21;51.32;99022.23;25144;1315;3053351;-66
2022/05/21 00:30:52;;;;;;;23.40;6.30;;;;;;;15.16;51.22;99019.66;25080;1313;3026432;-69
2022/05/21 00:33:22;;;;;;;25.30;6.90;;;;;;;15.06;51.56;99013.47;25096;1313;3054902;-66
2022/05/21 00:35:51;;;;;;;25.20;7.40;;;;;;;15.07;51.50;99012.35;25136;1315;3026180;-67
2022/05/21 00:38:20;;;;;;;19.60;7.10;;;;;;;15.02;51.90;99004.89;25028;1313;3027191;-72
2022/05/21 00:40:50;;;;;;;23.70;6.50;;;;;;;14.96;51.96;99000.21;25120;1313;3025948;-70
2022/05/21 00:43:39;;;;;;;22.50;7.40;;;;;;;14.93;51.91;99000.70;25067;1313;3052417;-65
2022/05/21 00:46:15;;;;;;;27.10;6.90;;;;;;;14.85;52.45;98996.97;25103;1313;3070331;-62
2022/05/21 00:48:45;;;;;;;20.10;7.40;;;;;;;14.88;52.39;98997.23;25125;1315;3049221;-64
2022/05/21 00:51:20;;;;;;;24.20;7.30;;;;;;;14.92;52.13;98993.87;25094;1313;3026604;-62
2022/05/21 00:53:51;;;;;;;32.10;7.70;;;;;;;14.82;52.61;98988.75;25100;1315;3052476;-70
2022/05/21 00:56:20;;;;;;;21.00;6.90;;;;;;;14.83;52.63;98977.52;25054;1313;3026140;-66
2022/05/21 01:01:43;;;;;;;22.70;7.30;;;;;;;14.73;52.59;98971.00;25082;1313;3056096;-66
2022/05/21 01:04:12;;;;;;;23.20;7.30;;;;;;;14.73;52.52;98971.88;25117;1315;3026438;-63
2022/05/21 01:06:41;;;;;;;23.80;7.20;;;;;;;14.63;53.13;98966.00;25101;1313;3026334;-64
2022/05/21 01:09:10;;;;;;;30.70;7.80;;;;;;;14.62;52.99;98966.68;25079;1313;3055385;-62
2022/05/21 01:11:39;;;;;;;23.70;7.50;;;;;;;14.64;52.98;98964.71;25117;1313;3026284;-66
2022/05/21 01:14:10;;;;;;;27.10;8.00;;;;;;;14.54;52.93;98958.85;25098;1315;3026589;-67
2022/05/21 01:16:40;;;;;;;26.10;7.20;;;;;;;14.61;52.85;98955.44;25102;1313;3027927;-71
2022/05/21 01:19:09;;;;;;;32.20;9.10;;;;;;;14.62;52.77;98951.86;25095;1313;3026733;-68
2022/05/21 01:21:39;;;;;;;28.80;9.30;;;;;;;14.52;53.15;98942.61;25088;1313;3026555;-69
2022/05/21 01:24:09;;;;;;;25.10;8.10;;;;;;;14.50;53.05;98937.89;25058;1315;3026141;-61
2022/05/21 01:26:39;;;;;;;31.40;9.00;;;;;;;14.47;53.23;98930.02;25065;1315;3027169;-62
2022/05/21 01:29:12;;;;;;;27.80;8.10;;;;;;;14.48;53.13;98933.98;25057;1315;3027787;-66
2022/05/21 01:31:50;;;;;;;27.60;8.90;;;;;;;14.51;53.02;98930.55;25117;1315;3050615;-65
2022/05/21 01:34:19;;;;;;;40.30;9.30;;;;;;;14.52;53.03;98929.78;25045;1313;3069324;-60
2022/05/21 01:36:49;;;;;;;21.90;8.30;;;;;;;14.53;53.33;98923.86;25084;1315;3026544;-63
2022/05/21 01:39:18;;;;;;;24.60;8.50;;;;;;;14.46;53.52;98916.54;25117;1313;3026544;-62
2022/05/21 01:41:50;;;;;;;21.50;7.90;;;;;;;14.42;53.61;98911.71;25062;1313;3026068;-66
2022/05/21 01:44:38;;;;;;;32.30;8.00;;;;;;;14.43;53.57;98903.42;25133;1313;3027479;-61
2022/05/21 01:47:09;;;;;;;23.40;8.30;;;;;;;14.35;53.80;98901.73;25124;1313;3052465;-65
2022/05/21 01:49:39;;;;;;;26.10;7.70;;;;;;;14.31;53.93;98901.41;25064;1315;3026459;-60
2022/05/21 01:52:08;;;;;;;19.10;8.30;;;;;;;14.24;54.08;98900.71;25107;1313;3026385;-65
2022/05/21 01:54:38;;;;;;;20.90;7.20;;;;;;;14.19;54.29;98899.60;25098;1313;3026550;-62
2022/05/21 01:57:09;;;;;;;29.70;7.50;;;;;;;14.16;54.52;98887.35;25064;1315;3026989;-65
2022/05/21 01:59:39;;;;;;;19.40;7.70;;;;;;;14.10;54.99;98878.15;25055;1313;3026403;-68
2022/05/21 02:02:09;;;;;;;19.60;7.20;;;;;;;14.16;54.89;98876.60;25083;1315;3027293;-61
2022/05/21 02:04:40;;;;;;;16.40;6.10;;;;;;;14.13;54.80;98874.00;25100;1315;3026482;-67
2022/05/21 02:07:09;;;;;;;25.10;7.50;;;;;;;14.02;55.43;98869.30;25591;1313;3026503;-58
2022/05/21 02:09:39;;;;;;;18.00;6.90;;;;;;;13.99;55.74;98867.98;25509;1313;3051835;-60
2022/05/21 02:12:14;;;;;;;14.80;5.70;;;;;;;14.03;55.53;98872.41;25571;1313;3026632;-57
2022/05/21 02:14:44;;;;;;;25.10;6.50;;;;;;;14.03;55.49;98866.08;25238;1314;3049221;-69
2022/05/21 02:17:15;;;;;;;23.70;6.80;;;;;;;14.03;55.83;98865.04;25110;1313;3026529;-63
2022/05/21 02:19:44;;;;;;;27.30;7.00;;;;;;;13.95;55.88;98867.83;25108;1313;3056082;-67
2022/05/21 02:22:13;;;;;;;23.10;6.10;;;;;;;13.94;56.29;98868.10;25055;1313;3029883;-69
2022/05/21 02:24:42;;;;;;;18.10;6.30;;;;;;;13.88;56.55;98868.05;25053;1314;3054722;-68
2022/05/21 02:27:13;;;;;;;20.00;7.30;;;;;;;13.91;56.40;98864.60;25059;1315;3026851;-59
2022/05/21 02:29:44;;;;;;;18.50;6.40;;;;;;;13.93;56.28;98864.80;25168;1313;3026766;-68
2022/05/21 02:32:14;;;;;;;23.80;7.30;;;;;;;13.92;56.44;98867.73;25115;1313;3026737;-64
2022/05/21 02:34:43;;;;;;;26.20;6.30;;;;;;;13.87;56.89;98861.10;25145;1315;3026807;-59
2022/05/21 02:40:00;;;;;;;22.80;6.40;;;;;;;13.83;57.18;98866.86;25080;1312;3055664;-63
2022/05/21 02:42:48;;;;;;;19.00;6.20;;;;;;;13.86;57.41;98866.30;25108;1312;3026470;-66
2022/05/21 02:45:25;;;;;;;21.90;6.40;;;;;;;13.86;57.14;98863.05;25105;1312;3071729;-68
2022/05/21 02:47:55;;;;;;;20.60;4.80;;;;;;;13.87;57.40;98865.13;25040;1315;3050624;-66
2022/05/21 02:50:27;;;;;;;21.70;5.70;;;;;;;13.89;57.63;98870.71;25100;1312;3026650;-64
2022/05/21 02:52:56;;;;;;;21.70;5.80;;;;;;;13.93;57.50;98866.73;25070;1312;3027419;-65
2022/05/21 02:55:26;;;;;;;24.80;6.50;;;;;;;13.98;57.45;98871.64;25090;1312;3026688;-68
2022/05/21 02:57:56;;;;;;;16.90;5.10;;;;;;;14.05;57.13;98867.87;25048;1312;3026430;-66
2022/05/21 03:00:30;;;;;;;19.10;5.90;;;;;;;14.01;57.55;98871.67;25153;1312;3026663;-69
2022/05/21 03:02:59;;;;;;;22.30;5.60;;;;;;;14.09;57.45;98875.42;25119;1312;3056295;-67
2022/05/21 03:05:31;;;;;;;24.60;4.90;;;;;;;14.07;57.45;98874.16;25045;1312;3028908;-63
2022/05/21 03:10:20;;;;;;;22.10;5.60;;;;;;;14.06;57.74;98885.02;25042;1315;3050274;-67
2022/05/21 03:10:52;;;;;;;24.60;5.80;;;;;;;13.99;57.84;98879.98;25090;1312;3059065;-68
2022/05/21 03:13:21;;;;;;;20.00;6.00;;;;;;;14.00;58.08;98872.29;25102;1312;3026021;-65
2022/05/21 03:15:51;;;;;;;19.40;5.80;;;;;;;13.98;58.10;98869.13;25061;1312;3026836;-66
2022/05/21 03:18:20;;;;;;;14.60;5.50;;;;;;;13.96;58.44;98872.65;25061;1312;3027297;-66
2022/05/21 03:20:49;;;;;;;31.40;5.60;;;;;;;14.01;58.43;98872.59;25105;1312;3028689;-66
2022/05/21 03:23:19;;;;;;;20.00;5.50;;;;;;;13.96;58.26;98871.92;25048;1313;3026791;-70
2022/05/21 03:25:48;;;;;;;17.70;5.00;;;;;;;14.02;58.21;98865.44;25121;1312;3053116;-68
2022/05/21 03:28:18;;;;;;;21.90;4.80;;;;;;;14.01;58.32;98864.29;25093;1312;3026450;-67
2022/05/21 03:30:49;;;;;;;22.90;5.30;;;;;;;14.04;58.25;98866.35;25057;1312;3052765;-65
2022/05/21 03:33:18;;;;;;;17.40;5.30;;;;;;;14.00;58.84;98857.02;25058;1312;3026668;-67
2022/05/21 03:35:47;;;;;;;45.40;6.30;;;;;;;14.06;58.29;98851.58;25102;1312;3026156;-61
2022/05/21 03:38:19;;;;;;;17.10;4.90;;;;;;;14.10;58.15;98853.67;25073;1312;3052375;-68
2022/05/21 03:40:48;;;;;;;19.50;5.50;;;;;;;14.12;58.22;98859.34;25102;1312;3026936;-66
2022/05/21 03:43:17;;;;;;;22.50;5.50;;;;;;;14.17;58.36;98863.71;25062;1312;3025858;-61
2022/05/21 03:45:46;;;;;;;21.10;6.40;;;;;;;14.27;58.16;98859.63;25101;1315;3054868;-66
2022/05/21 03:48:16;;;;;;;30.00;6.90;;;;;;;14.28;58.11;98862.02;25104;1315;3026893;-61
2022/05/21 03:50:45;;;;;;;24.90;5.60;;;;;;;14.26;58.17;98864.84;25079;1312;3026426;-66
2022/05/21 03:53:16;;;;;;;20.90;6.10;;;;;;;14.17;58.63;98856.07;25101;1312;3054825;-67
2022/05/21 03:55:45;;;;;;;29.10;5.40;;;;;;;14.22;58.61;98847.88;25121;1312;3026135;-68
2022/05/21 03:58:15;;;;;;;24.80;6.00;;;;;;;14.28;58.27;98855.64;25047;1312;3026619;-61
2022/05/21 04:00:44;;;;;;;34.00;5.60;;;;;;;14.37;58.23;98845.75;25108;1312;3052369;-69
2022/05/21 04:03:13;;;;;;;22.70;6.10;;;;;;;14.49;57.99;98849.48;25118;1312;3026544;-69
2022/05/21 04:05:43;;;;;;;17.00;6.00;;;;;;;14.53;57.80;98843.17;25068;1312;3026708;-70
2022/05/21 04:08:18;;;;;;;16.40;5.40;;;;;;;14.54;57.73;98838.63;25101;1312;3054562;-63
2022/05/21 04:10:47;;;;;;;20.40;5.90;;;;;;;14.60;57.56;98843.21;25057;1312;3026888;-60
2022/05/21 04:13:16;;;;;;;24.30;5.20;;;;;;;14.70;57.48;98837.14;25047;1315;3052031;-65
2022/05/21 04:15:46;;;;;;;17.90;5.80;;;;;;;14.68;57.32;98839.58;25108;1315;3026473;-63
2022/05/21 04:18:17;;;;;;;18.30;5.10;;;;;;;14.76;57.20;98846.98;25121;1312;3056369;-66
2022/05/21 04:20:47;;;;;;;17.20;5.70;;;;;;;14.77;57.21;98840.92;25117;1315;3026348;-62
2022/05/21 04:23:16;;;;;;;21.80;5.40;;;;;;;14.78;57.20;98850.67;25069;1312;3026500;-61
2022/05/21 04:25:47;;;;;;;17.60;5.30;;;;;;;14.86;57.01;98850.56;25106;1312;3026233;-70
2022/05/21 04:28:16;;;;;;;24.10;4.40;;;;;;;14.92;57.19;98848.04;25089;1316;3050640;-65
2022/05/21 04:30:45;;;;;;;20.80;5.40;;;;;;;15.07;56.47;98845.36;25149;1313;3026461;-63
2022/05/21 04:33:14;;;;;;;25.00;5.30;;;;;;;15.11;56.18;98851.34;25044;1313;3026193;-70
2022/05/21 04:38:35;;;;;;;16.00;5.10;;;;;;;15.29;56.00;98842.48;25049;1315;3055900;-66
2022/05/21 04:41:05;;;;;;;20.80;4.90;;;;;;;15.41;55.82;98841.05;25079;1313;3026881;-69
2022/05/21 04:43:34;;;;;;;26.30;5.60;;;;;;;15.40;56.39;98842.95;25108;1314;3026639;-62
2022/05/21 04:46:03;;;;;;;29.80;6.20;;;;;;;15.55;55.96;98833.97;25147;1315;3055125;-68
2022/05/21 04:48:32;;;;;;;20.90;5.60;;;;;;;15.67;55.68;98829.90;25086;1313;3028388;-72
2022/05/21 04:51:02;;;;;;;23.60;5.10;;;;;;;15.79;55.49;98821.16;25112;1313;3052027;-69
2022/05/21 04:53:33;;;;;;;20.00;4.90;;;;;;;15.83;55.75;98828.08;25069;1313;3027160;-63
2022/05/21 04:56:04;;;;;;;17.10;5.30;;;;;;;15.91;55.37;98823.47;25097;1313;3026594;-71
2022/05/21 04:58:33;;;;;;;19.90;4.60;;;;;;;16.00;55.07;98821.39;25083;1315;3026414;-66
2022/05/21 05:01:02;;;;;;;15.50;4.80;;;;;;;16.03;55.13;98818.51;25076;1315;3026831;-64
2022/05/21 05:03:31;;;;;;;18.60;5.50;;;;;;;16.10;54.70;98821.92;25142;1315;3050658;-65
2022/05/21 05:06:01;;;;;;;18.70;5.30;;;;;;;16.25;54.32;98820.70;25042;1313;3026158;-68
2022/05/21 05:08:30;;;;;;;21.50;4.70;;;;;;;16.33;54.27;98816.39;25094;1315;3055147;-62
2022/05/21 05:10:59;;;;;;;25.90;5.70;;;;;;;16.38;54.49;98807.02;25079;1313;3026141;-64
2022/05/21 05:13:28;;;;;;;17.60;4.80;;;;;;;16.47;53.13;98832.35;25021;1315;3050753;-72
2022/05/21 05:15:59;;;;;;;21.70;4.70;;;;;;;16.55;52.43;98823.60;25131;1315;3027003;-70
2022/05/21 05:18:30;;;;;;;22.20;4.50;;;;;;;16.66;52.45;98815.90;25028;1315;3026664;-60
2022/05/21 05:21:00;;;;;;;20.50;4.90;;;;;;;16.75;52.61;98811.17;25125;1315;3050150;-65
2022/05/21 05:23:30;;;;;;;23.00;5.10;;;;;;;16.80;52.70;98809.43;25136;1315;3027482;-63
2022/05/21 05:25:59;;;;;;;18.50;5.20;;;;;;;16.96;52.40;98805.20;25112;1313;3026619;-67
2022/05/21 05:28:29;;;;;;;17.90;5.00;;;;;;;17.07;52.45;98800.79;25051;1313;3026615;-68
2022/05/21 05:30:57;;;;;;;22.70;4.50;;;;;;;17.20;52.06;98797.42;25115;1313;3026333;-66
2022/05/21 05:33:29;;;;;;;19.60;4.20;;;;;;;17.25;51.95;98794.05;25029;1315;3053589;-63
2022/05/21 05:36:00;;;;;;;21.60;5.40;;;;;;;17.42;51.72;98796.32;25087;1315;3026137;-68
2022/05/21 05:38:30;;;;;;;21.80;5.70;;;;;;;17.54;51.55;98790.14;25093;1313;3027435;-68
2022/05/21 05:40:59;;;;;;;23.70;5.60;;;;;;;17.57;51.84;98790.37;25152;1313;3026233;-68
2022/05/21 05:43:28;;;;;;;14.70;4.10;;;;;;;17.70;51.38;98787.85;25048;1315;3069600;-65
2022/05/21 05:46:00;;;;;;;20.00;4.80;;;;;;;17.80;50.57;98798.35;25108;1313;3026078;-66
2022/05/21 05:48:29;;;;;;;12.70;4.20;;;;;;;17.90;48.89;98791.19;25120;1315;3053709;-64
2022/05/21 05:51:02;;;;;;;17.10;5.70;;;;;;;18.05;49.07;98790.83;25078;1313;3028185;-64
2022/05/21 05:53:31;;;;;;;21.40;4.90;;;;;;;18.14;48.71;98789.91;25077;1314;3028860;-63
2022/05/21 05:56:00;;;;;;;15.30;4.90;;;;;;;18.30;48.60;98787.06;25111;1313;3026236;-70
2022/05/21 06:01:20;;;;;;;20.20;5.50;;;;;;;18.62;47.92;98784.49;25122;1313;3048787;-64
2022/05/21 06:03:49;;;;;;;17.50;4.70;;;;;;;18.75;47.78;98796.61;25076;1313;3027549;-60
2022/05/21 06:06:18;;;;;;;14.00;4.50;;;;;;;18.79;46.21;98788.37;25098;1313;3026502;-68
2022/05/21 06:08:47;;;;;;;13.60;4.80;;;;;;;18.80;46.56;98787.20;25107;1315;3049181;-67
2022/05/21 06:11:16;;;;;;;18.70;5.00;;;;;;;18.83;46.43;98784.05;25082;1316;3026110;-67
2022/05/21 06:13:46;;;;;;;17.80;5.20;;;;;;;18.91;46.99;98784.29;25165;1313;3068411;-64
2022/05/21 06:16:15;;;;;;;22.30;5.90;;;;;;;18.97;47.73;98779.55;25084;1315;3027290;-64
2022/05/21 06:18:44;;;;;;;21.40;5.10;;;;;;;18.94;48.18;98773.66;25060;1315;3049276;-67
2022/05/21 06:21:13;;;;;;;17.60;5.80;;;;;;;19.06;47.96;98769.78;25110;1315;3026793;-65
2022/05/21 06:23:44;;;;;;;19.40;4.90;;;;;;;19.15;47.93;98768.06;25051;1315;3026602;-71
2022/05/21 06:26:13;;;;;;;26.00;5.30;;;;;;;19.20;47.50;98762.40;25054;1313;3050703;-67
2022/05/21 06:28:43;;;;;;;16.80;5.20;;;;;;;19.30;47.72;98753.89;25029;1313;3027380;-64
2022/05/21 06:31:12;;;;;;;22.70;6.10;;;;;;;19.30;47.75;98747.96;25113;1316;3026193;-68
2022/05/21 06:33:41;;;;;;;26.00;5.30;;;;;;;19.40;47.20;98741.94;25093;1315;3026486;-68
2022/05/21 06:36:12;;;;;;;16.20;5.20;;;;;;;19.53;47.54;98744.05;25089;1315;3070799;-71
2022/05/21 06:38:42;;;;;;;20.30;6.10;;;;;;;19.64;46.95;98746.23;25139;1315;3026179;-66
2022/05/21 06:41:14;;;;;;;27.70;6.50;;;;;;;19.66;47.40;98746.79;25070;1313;3026582;-66
2022/05/21 06:43:44;;;;;;;14.50;4.90;;;;;;;19.67;47.10;98739.40;25080;1315;3027673;-69
2022/05/21 06:46:14;;;;;;;17.80;5.80;;;;;;;19.74;46.77;98740.16;25035;1315;3026151;-69
2022/05/21 06:48:45;;;;;;;21.10;5.40;;;;;;;19.80;46.77;98738.33;25081;1315;3026986;-63
2022/05/21 06:51:15;;;;;;;20.20;4.80;;;;;;;19.88;46.57;98733.48;25107;1315;3030255;-63
2022/05/21 06:53:44;;;;;;;25.50;5.50;;;;;;;19.75;46.78;98732.66;25081;1315;3026797;-62
2022/05/21 06:56:14;;;;;;;17.00;5.10;;;;;;;19.84;46.49;98732.33;25159;1313;3051852;-67
2022/05/21 06:58:44;;;;;;;25.50;5.80;;;;;;;20.01;46.35;98722.45;25225;1312;3026949;-61
2022/05/21 07:01:13;;;;;;;16.90;5.10;;;;;;;20.20;46.19;98722.30;25468;1316;3026076;-64
2022/05/21 07:03:42;;;;;;;20.40;4.80;;;;;;;20.28;45.82;98723.55;25519;1312;3052105;-58
2022/05/21 07:09:01;;;;;;;14.40;4.60;;;;;;;20.56;44.86;98715.25;25078;1315;3053914;-69
2022/05/21 07:11:30;;;;;;;16.30;5.20;;;;;;;20.75;44.44;98715.74;25117;1313;3026185;-63
2022/05/21 07:13:59;;;;;;;13.70;5.50;;;;;;;20.85;44.12;98709.14;25069;1313;3055282;-68
2022/05/21 07:16:28;;;;;;;19.70;5.30;;;;;;;20.91;44.12;98706.45;25071;1312;3026209;-64
2022/05/21 07:18:57;;;;;;;22.00;5.20;;;;;;;20.99;43.88;98707.45;25084;1312;3026606;-68
2022/05/21 07:21:44;;;;;;;23.00;4.90;;;;;;;21.07;43.89;98708.70;25042;1315;3055881;-63
2022/05/21 07:24:14;;;;;;;14.10;5.00;;;;;;;21.15;43.55;98709.02;25060;1313;3026970;-71
2022/05/21 07:26:46;;;;;;;17.40;4.80;;;;;;;21.15;43.14;98698.65;25089;1313;3026505;-63
2022/05/21 07:29:16;;;;;;;22.30;5.50;;;;;;;21.23;42.65;98700.63;25106;1313;3052897;-66
2022/05/21 07:31:45;;;;;;;13.60;5.10;;;;;;;21.30;42.89;98697.15;25106;1316;3026686;-70
2022/05/21 07:34:15;;;;;;;20.70;5.90;;;;;;;21.36;42.72;98700.84;25089;1313;3026939;-65
2022/05/21 07:36:44;;;;;;;22.70;5.40;;;;;;;21.34;43.01;98689.53;25044;1312;3026346;-65
2022/05/21 07:39:14;;;;;;;23.50;5.30;;;;;;;21.43;43.05;98689.67;25120;1312;3026745;-69
2022/05/21 07:41:42;;;;;;;19.70;5.60;;;;;;;21.47;42.77;98689.33;25086;1312;3070899;-63
2022/05/21 07:44:12;;;;;;;19.50;5.80;;;;;;;21.49;42.36;98683.85;25129;1312;3026394;-68
2022/05/21 07:46:42;;;;;;;28.60;5.10;;;;;;;21.70;42.53;98689.89;25091;1312;3053213;-70
2022/05/21 07:49:12;;;;;;;17.20;5.50;;;;;;;21.82;41.66;98687.96;25066;1313;3026850;-70
2022/05/21 07:51:42;;;;;;;19.70;5.20;;;;;;;21.95;41.89;98679.54;25143;1316;3026246;-60
2022/05/21 07:54:10;;;;;;;23.30;5.40;;;;;;;22.01;41.95;98675.58;25107;1315;3026415;-66
2022/05/21 07:56:40;;;;;;;17.40;5.00;;;;;;;22.05;41.23;98682.13;25132;1315;3070376;-67
2022/05/21 07:59:09;;;;;;;19.00;4.90;;;;;;;22.18;41.36;98665.45;25074;1313;3026742;-68
2022/05/21 08:01:37;;;;;;;17.50;5.20;;;;;;;22.25;41.61;98664.77;25105;1312;3053006;-68
2022/05/21 08:04:06;;;;;;;27.00;5.60;;;;;;;22.36;41.94;98666.11;25053;1315;3026576;-65
2022/05/21 08:06:35;;;;;;;14.50;5.10;;;;;;;22.54;41.81;98669.84;25136;1312;3054775;-70
2022/05/21 08:09:05;;;;;;;20.30;5.70;;;;;;;22.48;42.00;98668.59;25051;1313;3026975;-65
2022/05/21 08:11:37;;;;;;;21.60;5.10;;;;;;;22.47;41.43;98674.95;25121;1313;3052091;-67
2022/05/21 08:14:06;;;;;;;22.20;5.90;;;;;;;22.51;41.30;98669.72;25081;1313;3026783;-70
2022/05/21 08:16:35;;;;;;;24.90;5.30;;;;;;;22.61;41.42;98666.66;25128;1315;3058719;-68
2022/05/21 08:19:05;;;;;;;22.90;6.30;;;;;;;22.67;41.72;98670.42;25048;1313;3027251;-69
2022/05/21 08:21:34;;;;;;;19.50;6.10;;;;;;;22.84;41.72;98658.96;25134;1313;3055000;-60
2022/05/21 08:26:58;;;;;;;17.80;5.30;;;;;;;23.26;41.46;98652.83;25112;1316;3049591;-64
2022/05/21 08:29:30;;;;;;;19.40;5.30;;;;;;;23.26;41.21;98652.91;25121;1316;3053930;-63
2022/05/21 08:32:00;;;;;;;20.70;5.80;;;;;;;23.32;41.30;98652.83;25104;1315;3026597;-64
2022/05/21 08:34:29;;;;;;;16.60;5.40;;;;;;;23.33;41.47;98660.71;25115;1316;3026631;-62
2022/05/21 08:36:58;;;;;;;16.70;4.90;;;;;;;23.37;40.75;98648.66;25080;1316;3026894;-69
2022/05/21 08:39:27;;;;;;;15.30;5.10;;;;;;;23.57;40.59;98645.48;25145;1313;3052992;-73
2022/05/21 08:42:13;;;;;;;18.30;5.60;;;;;;;23.76;39.93;98645.09;25101;1313;3026643;-65
2022/05/21 08:44:50;;;;;;;32.20;5.90;;;;;;;23.82;39.94;98644.10;25109;1316;3051016;-68
2022/05/21 08:47:19;;;;;;;29.30;5.70;;;;;;;24.01;40.28;98644.04;25077;1315;3026463;-67
2022/05/21 08:49:58;;;;;;;18.30;5.40;;;;;;;24.03;39.76;98646.97;25109;1313;3026393;-63
2022/05/21 08:53:03;;;;;;;14.40;4.80;;;;;;;24.09;40.06;98644.27;25091;1313;3052482;-65
2022/05/21 08:55:36;;;;;;;18.90;5.40;;;;;;;24.19;40.11;98641.20;25107;1313;3052823;-68
2022/05/21 08:58:08;;;;;;;23.80;5.40;;;;;;;24.22;39.70;98635.02;25153;1316;3028702;-69
2022/05/21 09:00:47;;;;;;;24.80;5.20;;;;;;;24.20;39.65;98633.90;25170;1313;3026472;-68
2022/05/21 09:03:20;;;;;;;21.20;5.20;;;;;;;24.27;39.04;98637.44;25083;1315;3052825;-65
2022/05/21 09:06:11;;;;;;;;;;;;;;;24.27;39.05;98630.13;25068;1313;3057021;-66
2022/05/21 09:09:01;;;;;;;21.70;5.20;;;;;;;24.47;38.83;98622.41;25080;1315;3051171;-70
2022/05/21 09:11:57;;;;;;;17.20;5.00;;;;;;;24.57;38.40;98628.71;25102;1313;3071291;-66
2022/05/21 09:14:36;;;;;;;20.90;6.60;;;;;;;24.62;38.26;98626.73;25097;1313;3049027;-68
2022/05/21 09:17:09;;;;;;;22.20;6.10;;;;;;;24.57;38.18;98638.30;25066;1313;3052387;-63
2022/05/21 09:19:43;;;;;;;23.00;5.40;;;;;;;24.46;38.63;98629.77;25143;1313;3056238;-69
2022/05/21 09:22:16;;;;;;;17.10;5.70;;;;;;;24.56;38.78;98628.76;25137;1315;3026671;-66
2022/05/21 09:24:55;;;;;;;29.50;5.90;;;;;;;24.62;38.55;98647.23;25071;1313;3052640;-70
2022/05/21 09:27:26;;;;;;;23.20;5.80;;;;;;;24.65;38.02;98645.14;25084;1315;3053893;-66
2022/05/21 09:30:17;;;;;;;28.50;6.40;;;;;;;24.65;38.27;98628.46;25124;1315;3029812;-65
2022/05/21 09:32:51;;;;;;;26.50;6.00;;;;;;;24.75;38.39;98627.18;25068;1315;3052219;-71
2022/05/21 09:35:34;;;;;;;20.80;6.10;;;;;;;24.85;38.52;98638.77;25067;1315;3053340;-71
2022/05/21 09:38:13;;;;;;;21.00;6.80;;;;;;;24.94;38.54;98611.78;25081;1313;3052651;-65
2022/05/21 09:40:42;;;;;;;30.30;6.50;;;;;;;25.02;38.36;98609.58;25129;1313;3068357;-70
2022/05/21 09:46:26;;;;;;;22.20;6.10;;;;;;;25.05;38.47;98615.23;25107;1313;3055348;-68
2022/05/21 09:49:11;;;;;;;23.30;5.90;;;;;;;25.05;37.95;98615.08;25127;1313;3055315;-62
2022/05/21 09:51:40;;;;;;;28.70;6.40;;;;;;;24.99;37.96;98613.56;25096;1315;3057330;-68
2022/05/21 09:54:20;;;;;;;23.20;6.40;;;;;;;25.13;38.02;98608.79;25136;1313;3026567;-65
2022/05/21 09:56:54;;;;;;;21.90;6.80;;;;;;;25.37;38.06;98596.00;25126;1316;3055905;-67
2022/05/21 09:59:24;;;;;;;22.30;6.70;;;;;;;25.47;37.92;98594.73;25076;1313;3026589;-66
2022/05/21 10:01:58;;;;;;;21.40;6.40;;;;;;;25.47;37.55;98602.80;25137;1315;3026576;-67
2022/05/21 10:04:36;;;;;;;;;;;;;;;25.52;37.56;98591.91;24769;1313;3556100;-70
2022/05/21 10:13:13;;;;;;;25.70;6.20;;;;;;;26.02;37.18;98578.84;25051;1313;3056327;-65
2022/05/21 10:15:46;;;;;;;13.90;5.50;;;;;;;26.08;36.87;98587.02;25080;1315;3026900;-64
2022/05/21 10:18:33;;;;;;;33.60;6.60;;;;;;;26.09;35.82;98573.40;25104;1315;3026674;-61
2022/05/21 10:21:28;;;;;;;17.20;6.10;;;;;;;26.00;35.32;98577.48;25071;1315;3053704;-70
2022/05/21 10:24:05;;;;;;;17.50;6.10;;;;;;;26.07;35.38;98573.23;25085;1313;3068428;-67
2022/05/21 10:26:47;;;;;;;21.50;6.60;;;;;;;26.18;35.63;98576.05;25083;1313;3051839;-66
2022/05/21 10:29:46;;;;;;;21.10;6.20;;;;;;;26.18;35.53;98572.69;25074;1317;3052400;-68
2022/05/21 10:32:50;;;;;;;29.30;7.00;;;;;;;26.16;35.55;98566.95;25112;1313;3053240;-66
2022/05/21 10:35:28;;;;;;;17.90;5.70;;;;;;;26.05;35.56;98566.30;25081;1316;3057911;-68
2022/05/21 10:38:28;;;;;;;21.60;6.90;;;;;;;26.09;35.68;98569.09;25114;1316;3053095;-62
2022/05/21 10:41:06;;;;;;;19.90;6.90;;;;;;;26.20;35.80;98555.98;25084;1315;3054654;-70
2022/05/21 10:44:01;;;;;;;22.90;7.40;;;;;;;26.45;35.87;98547.00;25083;1317;3052553;-70
2022/05/21 10:46:37;;;;;;;19.00;6.60;;;;;;;26.61;35.47;98542.14;25097;1313;3069122;-62
2022/05/21 10:49:32;;;;;;;14.40;6.10;;;;;;;26.62;35.54;98545.62;25065;1313;3049614;-64
2022/05/21 10:52:37;;;;;;;18.80;6.50;;;;;;;26.66;35.25;98547.91;25077;1315;3054878;-62
2022/05/21 10:55:13;;;;;;;18.80;6.00;;;;;;;26.77;35.49;98536.61;25058;1313;3055246;-62
2022/05/21 10:58:05;;;;;;;29.00;6.00;;;;;;;26.81;35.09;98542.76;25086;1313;3058511;-65
2022/05/21 11:00:44;;;;;;;11.50;5.30;;;;;;;26.72;35.13;98537.73;25016;1315;3049552;-70
2022/05/21 11:03:32;;;;;;;18.80;6.00;;;;;;;26.71;35.07;98535.48;25123;1312;3051638;-65
2022/05/21 11:06:17;;;;;;;20.00;5.90;;;;;;;26.57;35.24;98543.58;25162;1314;3051797;-63
2022/05/21 11:08:46;;;;;;;24.80;6.80;;;;;;;26.43;35.40;98525.39;25088;1316;3071435;-71
2022/05/21 11:11:54;;;;;;;20.20;6.10;;;;;;;26.58;35.38;98521.70;25125;1315;3026072;-72
2022/05/21 11:14:27;;;;;;;25.70;6.50;;;;;;;26.57;35.30;98518.67;25050;1312;3051628;-66
2022/05/21 11:17:14;;;;;;;25.60;6.40;;;;;;;26.80;34.72;98517.71;25085;1312;3026469;-73
2022/05/21 11:19:48;;;;;;;16.30;6.20;;;;;;;26.85;34.30;98512.25;25119;1312;3049822;-68
2022/05/21 11:22:25;;;;;;;;;;;;;;;27.03;34.19;98512.92;25130;1312;3052902;-66
2022/05/21 11:25:27;;;;;;;12.50;5.30;;;;;;;27.14;33.84;98505.90;25103;1312;3052897;-64
2022/05/21 11:28:30;;;;;;;19.90;6.00;;;;;;;27.18;33.51;98488.13;25112;1312;3058712;-67
2022/05/21 11:31:05;;;;;;;29.90;8.20;;;;;;;27.23;33.83;98497.45;25131;1313;3052308;-61
2022/05/21 11:39:13;;;;;;;18.20;7.60;;;;;;;27.35;33.17;98477.89;25242;1313;3070570;-66
2022/05/21 11:41:54;;;;;;;24.40;8.20;;;;;;;27.27;33.06;98491.07;25136;1315;3026836;-69
2022/05/21 11:44:55;;;;;;;22.60;8.40;;;;;;;27.15;33.14;98474.73;25074;1313;3055284;-64
2022/05/21 11:47:33;;;;;;;24.90;8.40;;;;;;;27.17;33.16;98472.80;25075;1315;3055849;-65
2022/05/21 11:50:03;;;;;;;18.10;7.20;;;;;;;27.33;33.29;98474.45;25125;1313;3058675;-70
2022/05/21 11:52:37;;;;;;;24.90;6.90;;;;;;;27.19;32.73;98469.85;25131;1315;3028870;-68
2022/05/21 11:55:20;;;;;;;25.50;5.90;;;;;;;27.31;32.43;98469.09;25082;1315;3026881;-70
2022/05/21 11:57:53;;;;;;;22.90;5.90;;;;;;;27.38;32.24;98468.79;25123;1315;3053441;-67
2022/05/21 12:00:25;;;;;;;18.60;6.70;;;;;;;27.32;32.48;98459.05;25066;1315;3026434;-68
2022/05/21 12:02:57;;;;;;;21.80;7.10;;;;;;;27.31;31.83;98459.33;25140;1315;3050289;-65
2022/05/21 12:05:40;;;;;;;21.60;7.10;;;;;;;27.26;31.65;98456.02;25095;1315;3026833;-67
2022/05/21 12:08:14;;;;;;;20.10;7.20;;;;;;;27.26;32.42;98461.67;25136;1313;3068539;-68
2022/05/21 12:10:53;;;;;;;27.10;7.00;;;;;;;27.20;33.05;98447.92;25069;1313;3025993;-63